Time;durP1;ratioP1;P1;durP2;ratioP2;P2;SDS_P1;SDS_P2;PMS_P1;PMS_P2;Temp;Humidity;BMP_temperature;BMP_pressure;BME280_temperature;BME280_humidity;BME280_pressure;Samples;Min_cycle;Max_cycle;Signal;HPM_P1;HPM_P2
2021/12/28 00:03:12;;;;;;;;;46.25;33.50;;;;;;;;6468382;46;8941;-58
2021/12/28 00:09:17;;;;;;;;;39.00;34.00;;;;;;;;6467993;39;9025;-55
2021/12/28 00:21:28;;;;;;;;;33.50;31.25;;;;;;;;6467464;31;8906;-56
2021/12/28 00:27:31;;;;;;;;;40.00;37.50;;;;;;;;6468600;39;9629;-57
2021/12/28 00:33:34;;;;;;;;;46.75;39.00;;;;;;;;6466774;46;8958;-56
2021/12/28 00:39:36;;;;;;;;;46.00;39.50;;;;;;;;6468164;39;8963;-56
2021/12/28 00:45:39;;;;;;;;;43.00;32.00;;;;;;;;6467915;46;8921;-55
2021/12/28 00:51:42;;;;;;;;;41.75;37.75;;;;;;;;6468392;39;8921;-55
2021/12/28 00:57:46;;;;;;;;;38.50;31.50;;;;;;;;6468153;31;8957;-54
2021/12/28 01:03:48;;;;;;;;;33.25;30.75;;;;;;;;6468863;31;8921;-56
2021/12/28 01:09:55;;;;;;;;;30.00;29.00;;;;;;;;6468400;39;8995;-53
2021/12/28 01:15:58;;;;;;;;;30.75;24.50;;;;;;;;6467893;39;8989;-52
2021/12/28 01:22:03;;;;;;;;;45.25;36.75;;;;;;;;6466414;39;8925;-55
2021/12/28 01:28:08;;;;;;;;;37.50;30.00;;;;;;;;6467603;47;8980;-55
2021/12/28 01:34:11;;;;;;;;;38.50;30.75;;;;;;;;6469955;31;9032;-54
2021/12/28 01:40:21;;;;;;;;;27.00;26.25;;;;;;;;6468204;31;9049;-56
2021/12/28 01:46:25;;;;;;;;;34.25;31.00;;;;;;;;6467669;39;9040;-57
2021/12/28 01:52:28;;;;;;;;;39.75;31.50;;;;;;;;6466933;39;9039;-56
2021/12/28 01:58:32;;;;;;;;;42.50;32.00;;;;;;;;6467962;39;8995;-57
2021/12/28 02:04:34;;;;;;;;;26.00;26.00;;;;;;;;6468058;31;8917;-57
2021/12/28 02:10:39;;;;;;;;;27.50;27.25;;;;;;;;6467229;47;8909;-56
2021/12/28 02:16:43;;;;;;;;;37.75;33.00;;;;;;;;6469204;39;8941;-55
2021/12/28 02:22:46;;;;;;;;;26.00;23.50;;;;;;;;6467730;39;9491;-54
2021/12/28 02:28:48;;;;;;;;;31.50;26.75;;;;;;;;6469529;39;8929;-57
2021/12/28 02:34:50;;;;;;;;;33.00;29.00;;;;;;;;6469449;39;9089;-56
2021/12/28 02:40:55;;;;;;;;;28.75;27.00;;;;;;;;6469159;46;8917;-60
2021/12/28 02:46:57;;;;;;;;;30.00;27.00;;;;;;;;6469305;39;9500;-56
2021/12/28 02:52:59;;;;;;;;;35.50;29.50;;;;;;;;6469050;46;8909;-56
2021/12/28 02:59:02;;;;;;;;;23.00;21.67;;;;;;;;6468403;39;9147;-58
2021/12/28 03:05:05;;;;;;;;;26.00;23.50;;;;;;;;6468742;39;9073;-57
2021/12/28 03:11:11;;;;;;;;;28.25;25.00;;;;;;;;6468483;31;8997;-55
2021/12/28 03:17:14;;;;;;;;;38.25;31.75;;;;;;;;6468507;39;8937;-56
2021/12/28 03:23:22;;;;;;;;;27.50;21.25;;;;;;;;6465391;39;8950;-56
2021/12/28 03:29:25;;;;;;;;;27.50;24.50;;;;;;;;6468691;39;8964;-55
2021/12/28 03:35:27;;;;;;;;;24.75;24.25;;;;;;;;6468543;39;8942;-57
2021/12/28 03:41:31;;;;;;;;;29.25;25.50;;;;;;;;6467388;39;8925;-53
2021/12/28 03:47:35;;;;;;;;;23.00;21.00;;;;;;;;6468852;39;9440;-54
2021/12/28 03:53:37;;;;;;;;;31.50;27.75;;;;;;;;6467692;46;8925;-56
2021/12/28 03:59:44;;;;;;;;;37.25;24.50;;;;;;;;6469461;39;8953;-55
2021/12/28 04:05:49;;;;;;;;;26.00;20.75;;;;;;;;6467710;39;8921;-55
2021/12/28 04:11:52;;;;;;;;;22.50;19.50;;;;;;;;6467887;39;8937;-54
2021/12/28 04:17:55;;;;;;;;;15.75;14.75;;;;;;;;6466840;39;8945;-54
2021/12/28 04:24:01;;;;;;;;;14.00;12.75;;;;;;;;6466379;39;8961;-55
2021/12/28 04:30:09;;;;;;;;;13.00;10.50;;;;;;;;6468751;39;9089;-57
2021/12/28 04:36:14;;;;;;;;;21.75;18.25;;;;;;;;6468816;39;9032;-55
2021/12/28 04:42:16;;;;;;;;;29.00;20.00;;;;;;;;6468046;46;9061;-56
2021/12/28 04:48:18;;;;;;;;;28.00;24.00;;;;;;;;6468510;39;8909;-56
2021/12/28 04:54:22;;;;;;;;;18.00;15.50;;;;;;;;6468166;39;9056;-55
2021/12/28 05:07:08;;;;;;;;;28.25;27.75;;;;;;;;6462309;31;9063;-56
